Time;durP1;ratioP1;P1;durP2;ratioP2;P2;SDS_P1;SDS_P2;PMS_P1;PMS_P2;Temp;Humidity;BMP_temperature;BMP_pressure;BME280_temperature;BME280_humidity;BME280_pressure;Samples;Min_cycle;Max_cycle;Signal;HPM_P1;HPM_P2
2023/12/19 00:00:50;;;;;;;152.20;108.38;;;1.90;99.90;;;;;;5038347;28;20056;-73
2023/12/19 00:03:16;;;;;;;157.85;104.88;;;1.90;99.90;;;;;;5031166;28;20025;-73
2023/12/19 00:05:42;;;;;;;131.48;88.18;;;2.00;99.90;;;;;;5031589;28;20052;-74
2023/12/19 00:08:08;;;;;;;97.50;67.40;;;2.00;99.90;;;;;;5018226;28;20025;-75
2023/12/19 00:10:34;;;;;;;101.80;71.32;;;2.00;99.90;;;;;;5040344;28;20091;-75
2023/12/19 00:13:01;;;;;;;98.50;68.82;;;2.10;99.90;;;;;;5019071;28;20052;-73
2023/12/19 00:15:26;;;;;;;113.72;78.20;;;2.10;99.90;;;;;;5022249;28;20087;-73
2023/12/19 00:17:52;;;;;;;121.50;82.72;;;2.10;99.90;;;;;;5013164;28;20033;-76
2023/12/19 00:20:18;;;;;;;117.45;74.63;;;2.10;99.90;;;;;;5021561;28;20474;-75
2023/12/19 00:22:46;;;;;;;119.07;79.00;;;2.10;99.90;;;;;;5021530;28;20050;-73
2023/12/19 00:25:15;;;;;;;106.65;74.28;;;2.10;99.90;;;;;;5014471;28;20030;-73
2023/12/19 00:27:40;;;;;;;120.53;76.35;;;2.20;99.90;;;;;;5011977;28;20486;-73
2023/12/19 00:30:09;;;;;;;117.53;79.20;;;2.30;99.90;;;;;;5015944;28;20026;-74
2023/12/19 00:32:35;;;;;;;115.70;78.65;;;2.30;99.90;;;;;;5021335;28;20032;-74
2023/12/19 00:35:01;;;;;;;131.85;95.68;;;2.30;99.90;;;;;;5034624;28;20116;-74
2023/12/19 00:37:27;;;;;;;143.70;96.75;;;2.30;99.90;;;;;;5024706;28;20551;-73
2023/12/19 00:39:53;;;;;;;167.48;107.80;;;2.20;99.90;;;;;;5019943;28;20034;-73
2023/12/19 00:42:19;;;;;;;176.05;117.18;;;2.10;99.90;;;;;;5028365;28;20030;-74
2023/12/19 00:44:45;;;;;;;195.27;139.13;;;1.90;99.90;;;;;;5025350;28;20048;-73
2023/12/19 00:47:11;;;;;;;288.40;192.27;;;1.90;99.90;;;;;;5025132;28;20465;-76
2023/12/19 00:49:36;;;;;;;293.58;204.10;;;1.80;99.90;;;;;;5025539;28;20071;-75
2023/12/19 00:52:02;;;;;;;281.90;193.73;;;1.70;99.90;;;;;;5026544;28;20053;-74
2023/12/19 00:54:28;;;;;;;291.55;194.77;;;1.70;99.90;;;;;;5018589;28;20030;-74
2023/12/19 00:56:54;;;;;;;281.95;193.38;;;1.70;99.90;;;;;;5001241;28;20021;-74
2023/12/19 00:59:20;;;;;;;294.10;198.25;;;1.60;99.90;;;;;;5016551;28;20524;-74
2023/12/19 01:01:47;;;;;;;285.60;197.05;;;1.70;99.90;;;;;;5024370;28;20045;-74
2023/12/19 01:04:13;;;;;;;284.63;196.48;;;1.70;99.90;;;;;;5022247;28;20037;-76
2023/12/19 01:06:39;;;;;;;277.50;191.70;;;1.70;99.90;;;;;;5033712;28;20033;-73
2023/12/19 01:09:05;;;;;;;264.80;185.30;;;1.70;99.90;;;;;;5026667;28;20022;-74
2023/12/19 01:11:31;;;;;;;264.13;179.43;;;1.70;99.90;;;;;;5025341;28;20025;-73
2023/12/19 01:13:57;;;;;;;285.77;189.43;;;1.70;99.90;;;;;;5054965;28;20029;-73
2023/12/19 01:16:23;;;;;;;260.92;182.88;;;1.70;99.90;;;;;;5054292;28;20158;-73
2023/12/19 01:18:48;;;;;;;264.92;179.20;;;1.70;99.90;;;;;;5036818;28;20044;-73
2023/12/19 01:21:14;;;;;;;267.13;177.23;;;1.70;99.90;;;;;;5036784;28;20028;-73
2023/12/19 01:23:40;;;;;;;269.75;183.20;;;1.70;99.90;;;;;;5047128;28;20106;-74
2023/12/19 01:26:06;;;;;;;264.20;171.38;;;1.70;99.90;;;;;;5042819;28;20468;-74
2023/12/19 01:28:32;;;;;;;256.88;173.68;;;1.70;99.90;;;;;;5044571;28;20037;-73
2023/12/19 01:30:58;;;;;;;249.98;171.25;;;1.70;99.90;;;;;;5035586;28;20377;-73
2023/12/19 01:33:23;;;;;;;244.15;174.05;;;1.70;99.90;;;;;;5044948;28;20472;-74
2023/12/19 01:35:50;;;;;;;243.75;164.27;;;1.60;99.90;;;;;;5038441;28;20018;-76
2023/12/19 01:38:16;;;;;;;238.52;163.57;;;1.60;99.90;;;;;;5018730;28;20020;-74
2023/12/19 01:40:43;;;;;;;250.25;165.68;;;1.70;99.90;;;;;;5042155;28;20022;-75
2023/12/19 01:43:20;;;;;;;261.77;168.02;;;1.70;99.90;;;;;;5041530;28;20393;-76
2023/12/19 01:45:48;;;;;;;229.25;163.40;;;1.50;99.90;;;;;;5039084;28;20156;-75
2023/12/19 01:48:15;;;;;;;230.18;157.80;;;1.40;99.90;;;;;;5043903;28;20017;-75
2023/12/19 01:50:42;;;;;;;258.42;173.65;;;1.30;99.90;;;;;;5044663;28;20033;-75
2023/12/19 01:53:09;;;;;;;254.85;168.77;;;1.20;99.90;;;;;;5040078;28;20028;-74
2023/12/19 01:55:37;;;;;;;249.00;162.07;;;1.20;99.90;;;;;;5046127;28;20028;-74
2023/12/19 01:58:03;;;;;;;229.68;155.48;;;1.30;99.90;;;;;;5044868;28;20017;-75
2023/12/19 02:00:30;;;;;;;245.93;159.52;;;1.30;99.90;;;;;;5048404;28;20040;-74
2023/12/19 02:02:57;;;;;;;231.85;158.85;;;1.30;99.90;;;;;;5039000;28;20029;-74
2023/12/19 02:05:23;;;;;;;233.75;159.32;;;1.40;99.90;;;;;;5040154;28;20456;-75
2023/12/19 02:07:49;;;;;;;218.38;147.73;;;1.40;99.90;;;;;;5036115;28;20131;-75
2023/12/19 02:10:15;;;;;;;226.85;152.30;;;1.30;99.90;;;;;;5045902;28;20021;-74
2023/12/19 02:12:42;;;;;;;222.63;149.27;;;1.30;99.90;;;;;;5034054;28;20137;-75
2023/12/19 02:15:09;;;;;;;210.63;133.65;;;1.40;99.90;;;;;;5044027;28;20112;-74
2023/12/19 02:17:39;;;;;;;195.82;133.82;;;1.40;99.90;;;;;;5038895;28;20036;-75
2023/12/19 02:20:08;;;;;;;221.40;148.65;;;1.50;99.90;;;;;;5037438;28;20025;-74
2023/12/19 02:22:34;;;;;;;217.80;148.27;;;1.40;99.90;;;;;;5036238;28;20486;-73
2023/12/19 02:25:00;;;;;;;225.85;150.43;;;1.40;99.90;;;;;;5051609;28;20120;-74
2023/12/19 02:31:25;;;;;;;229.20;150.73;;;1.50;99.90;;;;;;4839756;23;20459;-75
2023/12/19 02:33:51;;;;;;;225.65;146.27;;;1.60;99.90;;;;;;4936412;29;20497;-75
2023/12/19 02:36:17;;;;;;;212.60;146.02;;;1.50;99.90;;;;;;4935940;29;20055;-75
2023/12/19 02:38:43;;;;;;;217.88;146.20;;;1.50;99.90;;;;;;4936169;29;20063;-75
2023/12/19 02:41:10;;;;;;;223.30;145.57;;;1.50;99.90;;;;;;4936011;29;20032;-75
2023/12/19 02:43:37;;;;;;;222.77;144.20;;;1.50;99.90;;;;;;4936005;29;20383;-75
2023/12/19 02:46:04;;;;;;;215.05;141.00;;;1.50;99.90;;;;;;4935808;29;20035;-76
2023/12/19 02:48:29;;;;;;;215.07;141.15;;;1.40;99.90;;;;;;4935843;29;20032;-75
2023/12/19 02:50:55;;;;;;;216.88;139.20;;;1.50;99.90;;;;;;4936039;29;20028;-75
2023/12/19 02:53:21;;;;;;;219.68;147.55;;;1.60;99.90;;;;;;4918954;29;20031;-75
2023/12/19 02:55:47;;;;;;;220.38;144.48;;;1.60;99.90;;;;;;4935259;29;20070;-74
2023/12/19 02:58:13;;;;;;;206.27;137.65;;;1.60;99.90;;;;;;4935584;29;20099;-75
2023/12/19 03:00:39;;;;;;;217.38;137.68;;;1.60;99.90;;;;;;4935431;29;20039;-75
2023/12/19 03:03:12;;;;;;;225.38;147.50;;;1.60;99.90;;;;;;4935701;29;20024;-75
2023/12/19 03:05:38;;;;;;;;;;;1.50;99.90;;;;;;4919069;29;20458;-74
2023/12/19 03:08:04;;;;;;;220.48;144.48;;;1.50;99.90;;;;;;4933806;29;19998;-74
2023/12/19 03:10:29;;;;;;;235.00;148.85;;;1.50;99.90;;;;;;4927418;29;20095;-75
2023/12/19 03:12:55;;;;;;;236.93;152.07;;;1.50;99.90;;;;;;4935623;29;20028;-73
2023/12/19 03:15:34;;;;;;;221.93;140.10;;;1.30;99.90;;;;;;4935205;29;20479;-74
2023/12/19 03:18:06;;;;;;;234.80;155.52;;;1.30;99.90;;;;;;4918481;29;20036;-75
2023/12/19 03:20:32;;;;;;;242.40;162.38;;;1.20;99.90;;;;;;4944078;29;20092;-74
2023/12/19 03:23:05;;;;;;;238.63;155.45;;;1.30;99.90;;;;;;4939525;29;20027;-76
2023/12/19 03:25:31;;;;;;;235.65;151.25;;;1.30;99.90;;;;;;4935363;29;20035;-73
2023/12/19 03:27:57;;;;;;;219.63;143.90;;;1.30;99.90;;;;;;4918138;29;20087;-73
2023/12/19 03:30:23;;;;;;;214.30;141.95;;;1.30;99.90;;;;;;4953685;28;20166;-74
2023/12/19 03:32:48;;;;;;;264.35;166.88;;;1.20;99.90;;;;;;4942036;29;20511;-74
2023/12/19 03:35:17;;;;;;;212.95;141.90;;;1.30;99.90;;;;;;4941662;29;20034;-74
2023/12/19 03:37:46;;;;;;;191.00;127.00;;;1.10;99.90;;;;;;4940965;29;20032;-76
2023/12/19 03:40:12;;;;;;;181.40;121.72;;;1.10;99.90;;;;;;4918125;29;20091;-73
2023/12/19 03:42:38;;;;;;;193.52;129.65;;;1.10;99.90;;;;;;4941155;28;20028;-73
2023/12/19 03:45:04;;;;;;;176.50;112.80;;;1.10;99.90;;;;;;4941565;29;20047;-74
2023/12/19 03:47:30;;;;;;;140.48;94.75;;;1.20;99.90;;;;;;4935124;29;20399;-76
2023/12/19 03:49:56;;;;;;;138.20;94.40;;;1.30;99.90;;;;;;4934913;29;20122;-74
2023/12/19 03:52:23;;;;;;;120.90;84.05;;;1.30;99.90;;;;;;4922777;29;20468;-75
2023/12/19 03:54:50;;;;;;;136.98;98.78;;;1.30;99.90;;;;;;4935157;29;20035;-75
2023/12/19 03:57:16;;;;;;;131.27;91.80;;;1.40;99.90;;;;;;4947367;29;20023;-76
2023/12/19 03:59:43;;;;;;;136.43;97.18;;;1.40;99.90;;;;;;4917528;29;20040;-74
2023/12/19 04:02:14;;;;;;;150.63;103.97;;;1.20;99.90;;;;;;4935144;29;20375;-75
2023/12/19 04:04:40;;;;;;;144.93;100.60;;;1.20;99.90;;;;;;4917377;29;20042;-73
2023/12/19 04:07:06;;;;;;;151.40;102.50;;;1.20;99.90;;;;;;4934625;29;20024;-76
2023/12/19 04:09:33;;;;;;;136.02;91.28;;;1.00;99.90;;;;;;4934789;29;20038;-75
2023/12/19 04:12:02;;;;;;;133.10;96.20;;;1.00;99.90;;;;;;4942821;29;20027;-77
2023/12/19 04:14:31;;;;;;;153.65;102.47;;;1.00;99.90;;;;;;4939047;29;20480;-76
2023/12/19 04:16:57;;;;;;;119.47;78.35;;;1.00;99.90;;;;;;4934601;29;20027;-75
2023/12/19 04:19:23;;;;;;;91.90;62.22;;;1.00;99.90;;;;;;4934889;29;20434;-75
2023/12/19 04:21:50;;;;;;;114.55;79.07;;;1.00;99.90;;;;;;4934617;29;20062;-74
2023/12/19 04:24:16;;;;;;;89.82;60.33;;;1.10;99.90;;;;;;4934649;29;20044;-77
2023/12/19 04:26:42;;;;;;;73.75;53.90;;;1.10;99.90;;;;;;4934618;29;20525;-73
2023/12/19 04:29:09;;;;;;;89.90;62.35;;;1.10;99.90;;;;;;4917543;29;20107;-73
2023/12/19 04:31:35;;;;;;;93.68;67.00;;;1.10;99.90;;;;;;4942847;29;20064;-74
2023/12/19 04:34:04;;;;;;;92.45;64.88;;;1.20;99.90;;;;;;4938839;29;20118;-75
2023/12/19 04:36:31;;;;;;;98.50;64.38;;;1.20;99.90;;;;;;4934792;29;20087;-75
2023/12/19 04:38:58;;;;;;;107.97;69.50;;;1.30;99.90;;;;;;4934570;29;20035;-74
2023/12/19 04:41:24;;;;;;;101.72;65.97;;;1.30;99.90;;;;;;4934934;29;20042;-75
2023/12/19 04:43:49;;;;;;;98.13;62.92;;;1.30;99.90;;;;;;4934366;29;20036;-75
2023/12/19 04:46:15;;;;;;;81.45;56.13;;;1.30;99.90;;;;;;4917506;29;20035;-75
2023/12/19 04:48:42;;;;;;;76.38;52.03;;;1.30;99.90;;;;;;4928992;29;20038;-74
2023/12/19 04:51:24;;;;;;;77.40;53.97;;;1.30;99.90;;;;;;4932407;29;20035;-75
2023/12/19 04:53:50;;;;;;;83.97;55.83;;;1.40;99.90;;;;;;4930704;29;20496;-75
2023/12/19 04:56:16;;;;;;;88.20;56.65;;;1.40;99.90;;;;;;4931921;29;20064;-75
2023/12/19 04:58:45;;;;;;;87.90;55.20;;;1.40;99.90;;;;;;4926794;29;20412;-74
2023/12/19 05:01:12;;;;;;;85.45;55.10;;;1.50;99.90;;;;;;4934064;29;20382;-75
2023/12/19 05:03:39;;;;;;;81.25;52.92;;;1.40;99.90;;;;;;4934525;29;20518;-75
2023/12/19 05:06:08;;;;;;;76.32;50.50;;;1.40;99.90;;;;;;4934392;29;20078;-75
2023/12/19 05:08:34;;;;;;;85.53;56.45;;;1.50;99.90;;;;;;4926338;29;20111;-76
2023/12/19 05:11:00;;;;;;;75.13;48.63;;;1.50;99.90;;;;;;4917701;29;20035;-76
2023/12/19 05:13:26;;;;;;;74.55;47.85;;;1.50;99.90;;;;;;4916479;29;20026;-75
2023/12/19 05:15:52;;;;;;;84.07;51.60;;;1.60;99.90;;;;;;4926641;29;20020;-75
2023/12/19 05:18:23;;;;;;;85.07;55.15;;;1.60;99.90;;;;;;4934056;29;20020;-75
2023/12/19 05:20:54;;;;;;;72.55;50.22;;;1.60;99.90;;;;;;4936805;29;20032;-75
2023/12/19 05:23:20;;;;;;;69.32;46.15;;;1.60;99.90;;;;;;4935915;29;20094;-73
2023/12/19 05:25:46;;;;;;;70.78;47.42;;;1.50;99.90;;;;;;4937686;29;20039;-75
2023/12/19 05:28:12;;;;;;;66.85;46.25;;;1.50;99.90;;;;;;4939298;29;20039;-78
2023/12/19 05:30:38;;;;;;;61.45;41.38;;;1.40;99.90;;;;;;4947432;29;20459;-75
2023/12/19 05:33:04;;;;;;;67.95;43.13;;;1.40;99.90;;;;;;4943105;29;20550;-74
2023/12/19 05:35:30;;;;;;;66.65;42.63;;;1.50;99.90;;;;;;4956503;29;20050;-76
2023/12/19 05:37:56;;;;;;;65.25;42.00;;;1.50;99.90;;;;;;4944734;29;20046;-73
2023/12/19 05:40:22;;;;;;;61.95;38.15;;;1.40;99.90;;;;;;4937162;29;20028;-74
2023/12/19 05:42:48;;;;;;;54.10;37.45;;;1.50;99.90;;;;;;4937151;29;20034;-73
2023/12/19 05:45:14;;;;;;;55.25;36.80;;;1.50;99.90;;;;;;4936849;29;20035;-74
2023/12/19 05:47:40;;;;;;;60.10;38.65;;;1.50;99.90;;;;;;4937181;29;20114;-76
2023/12/19 05:50:08;;;;;;;63.28;40.80;;;1.60;99.90;;;;;;4936928;29;20222;-73
2023/12/19 05:52:34;;;;;;;58.83;37.10;;;1.60;99.90;;;;;;4937153;29;20027;-74
2023/12/19 05:55:00;;;;;;;69.72;39.55;;;1.50;99.90;;;;;;4936890;29;20032;-73
2023/12/19 05:57:26;;;;;;;62.95;38.95;;;1.50;99.90;;;;;;4936952;29;20114;-74
2023/12/19 05:59:54;;;;;;;62.72;41.35;;;1.50;99.90;;;;;;4937013;29;20031;-73
2023/12/19 06:02:21;;;;;;;61.80;38.83;;;1.60;99.90;;;;;;4936305;29;20101;-74
2023/12/19 06:04:49;;;;;;;85.15;54.22;;;1.60;99.90;;;;;;4920052;29;20048;-74
2023/12/19 06:07:15;;;;;;;81.90;52.13;;;1.50;99.90;;;;;;4937101;29;20475;-74
2023/12/19 06:09:46;;;;;;;81.75;55.78;;;1.40;99.90;;;;;;4937044;29;20055;-74
2023/12/19 06:12:15;;;;;;;91.15;57.85;;;1.40;99.90;;;;;;4919466;29;20062;-73
2023/12/19 06:14:40;;;;;;;95.25;54.47;;;1.40;99.90;;;;;;4919788;29;20051;-75
2023/12/19 06:17:06;;;;;;;90.07;54.63;;;1.40;99.90;;;;;;4936344;29;20225;-74
2023/12/19 06:19:32;;;;;;;86.85;53.65;;;1.40;99.90;;;;;;4936593;29;20031;-74
2023/12/19 06:21:58;;;;;;;86.15;51.25;;;1.40;99.90;;;;;;4919311;29;20583;-74
2023/12/19 06:24:24;;;;;;;84.28;49.50;;;1.40;99.90;;;;;;4936275;29;20499;-74
2023/12/19 06:26:50;;;;;;;68.43;48.00;;;1.40;99.90;;;;;;4936407;29;20036;-74
2023/12/19 06:29:16;;;;;;;75.80;48.78;;;1.50;99.90;;;;;;4936068;29;20066;-75
2023/12/19 06:31:44;;;;;;;87.80;55.65;;;1.50;99.90;;;;;;4915706;29;20048;-75
2023/12/19 06:34:09;;;;;;;83.95;56.75;;;1.60;99.90;;;;;;4917254;29;20036;-75
2023/12/19 06:36:37;;;;;;;81.38;52.33;;;1.60;99.90;;;;;;4917175;29;20099;-74
2023/12/19 06:39:10;;;;;;;71.00;48.97;;;1.70;99.90;;;;;;4917192;29;20020;-77
2023/12/19 06:41:39;;;;;;;78.72;48.80;;;1.70;99.90;;;;;;4915900;29;20400;-74
2023/12/19 06:44:07;;;;;;;88.50;55.85;;;1.80;99.90;;;;;;4917532;29;20031;-77
2023/12/19 06:46:33;;;;;;;87.63;53.92;;;1.90;99.90;;;;;;4916381;29;20048;-76
2023/12/19 06:48:59;;;;;;;87.55;53.60;;;1.90;99.90;;;;;;4916984;29;20411;-74
2023/12/19 06:51:26;;;;;;;88.97;57.55;;;1.90;99.90;;;;;;4916703;29;20045;-76
2023/12/19 06:53:55;;;;;;;96.22;61.25;;;2.00;99.90;;;;;;4917166;29;20028;-75
2023/12/19 06:56:21;;;;;;;92.70;57.00;;;2.00;99.90;;;;;;4915565;29;20126;-76
2023/12/19 06:58:48;;;;;;;106.28;69.75;;;2.10;99.90;;;;;;4917121;29;20028;-76
2023/12/19 07:01:14;;;;;;;104.70;69.78;;;2.20;99.90;;;;;;4916339;29;20040;-76
2023/12/19 07:03:41;;;;;;;106.07;66.75;;;2.20;99.90;;;;;;4916761;29;20024;-75
2023/12/19 07:06:07;;;;;;;85.20;59.42;;;2.30;99.90;;;;;;4917048;29;20032;-76
2023/12/19 07:08:33;;;;;;;97.93;63.28;;;2.30;99.90;;;;;;4916822;29;20031;-77
2023/12/19 07:11:00;;;;;;;120.05;80.93;;;2.30;99.90;;;;;;4918008;29;20028;-75
2023/12/19 07:13:26;;;;;;;134.30;89.75;;;2.40;99.90;;;;;;4927547;29;20032;-76
2023/12/19 07:15:58;;;;;;;113.97;74.68;;;2.50;99.90;;;;;;4915344;29;20124;-76
2023/12/19 07:18:24;;;;;;;118.13;76.75;;;2.50;99.90;;;;;;4916830;29;20020;-75
2023/12/19 07:20:50;;;;;;;120.97;87.30;;;2.60;99.90;;;;;;4916583;29;20491;-76
2023/12/19 07:23:16;;;;;;;131.40;90.63;;;2.70;99.90;;;;;;4896091;29;20397;-76
2023/12/19 07:25:42;;;;;;;121.30;84.45;;;2.80;99.90;;;;;;4897717;29;20036;-76
2023/12/19 07:28:08;;;;;;;121.28;84.00;;;2.90;99.90;;;;;;4904389;29;20035;-75
2023/12/19 07:30:34;;;;;;;125.95;83.18;;;2.90;99.90;;;;;;4914783;29;20065;-76
2023/12/19 07:33:00;;;;;;;130.00;91.63;;;2.90;99.90;;;;;;4918073;29;20047;-75
2023/12/19 07:35:26;;;;;;;118.50;80.25;;;3.00;99.90;;;;;;4916216;29;20067;-76
2023/12/19 07:38:05;;;;;;;87.07;61.25;;;3.00;99.90;;;;;;4914553;29;20120;-74
2023/12/19 07:40:37;;;;;;;86.45;55.50;;;3.10;99.90;;;;;;4915986;29;20184;-75
2023/12/19 07:43:05;;;;;;;83.72;54.85;;;3.00;99.90;;;;;;4915666;29;20496;-76
2023/12/19 07:45:32;;;;;;;86.53;56.60;;;3.10;99.90;;;;;;4916257;29;20045;-75
2023/12/19 07:47:58;;;;;;;74.90;49.90;;;3.30;99.90;;;;;;4916034;29;20449;-76
2023/12/19 07:50:24;;;;;;;76.15;53.95;;;3.40;99.90;;;;;;4916174;29;20064;-76
2023/12/19 07:52:50;;;;;;;89.80;54.50;;;3.50;99.90;;;;;;4915823;29;20103;-75
2023/12/19 07:55:16;;;;;;;80.93;52.45;;;3.70;99.90;;;;;;4915835;29;20436;-75
2023/12/19 07:57:42;;;;;;;90.97;51.53;;;3.60;99.90;;;;;;4915992;29;20028;-75
2023/12/19 08:00:09;;;;;;;75.20;50.63;;;3.70;99.90;;;;;;4915753;29;20028;-75
2023/12/19 08:02:43;;;;;;;75.95;51.00;;;3.70;99.90;;;;;;4920042;29;20031;-75
2023/12/19 08:05:12;;;;;;;73.13;50.60;;;3.60;99.90;;;;;;4918101;29;20048;-75
2023/12/19 08:07:38;;;;;;;73.78;47.00;;;3.50;99.90;;;;;;4916125;29;20023;-76
2023/12/19 08:10:04;;;;;;;89.25;62.35;;;3.60;99.90;;;;;;4914351;29;20404;-76
2023/12/19 08:12:30;;;;;;;82.45;56.05;;;3.60;99.90;;;;;;4897310;29;20060;-75
2023/12/19 08:14:56;;;;;;;88.20;61.85;;;3.70;99.90;;;;;;4910234;29;20052;-76
2023/12/19 08:17:22;;;;;;;81.57;52.83;;;3.90;99.90;;;;;;4915065;29;20022;-77
2023/12/19 08:19:55;;;;;;;82.10;54.65;;;4.00;99.90;;;;;;4915778;29;20036;-75
2023/12/19 08:22:24;;;;;;;72.53;52.10;;;3.90;99.90;;;;;;4915028;29;20029;-76
2023/12/19 08:24:50;;;;;;;69.00;48.58;;;4.10;99.90;;;;;;4915140;29;20039;-75
2023/12/19 08:27:16;;;;;;;68.65;46.92;;;4.20;99.90;;;;;;4914720;29;20392;-74
2023/12/19 08:29:44;;;;;;;71.20;49.20;;;4.20;99.90;;;;;;4915191;29;20043;-75
2023/12/19 08:32:10;;;;;;;65.55;46.67;;;4.40;99.90;;;;;;4931340;29;20095;-75
2023/12/19 08:34:48;;;;;;;102.07;49.53;;;4.60;99.90;;;;;;4934583;29;20039;-72
2023/12/19 08:37:17;;;;;;;63.75;46.35;;;4.70;99.90;;;;;;4911318;29;20052;-73
2023/12/19 08:39:54;;;;;;;74.05;51.63;;;4.90;99.90;;;;;;4918601;29;20078;-75
2023/12/19 08:42:23;;;;;;;79.05;56.00;;;4.80;99.90;;;;;;4921388;29;20086;-73
2023/12/19 08:44:51;;;;;;;72.45;48.97;;;5.10;99.90;;;;;;4933101;29;20031;-76
2023/12/19 08:47:17;;;;;;;69.05;48.03;;;5.30;99.90;;;;;;4932930;29;20107;-72
2023/12/19 08:49:43;;;;;;;71.50;49.65;;;5.30;99.90;;;;;;4933497;29;20062;-74
2023/12/19 08:52:10;;;;;;;69.72;42.70;;;5.40;99.90;;;;;;4934128;29;20023;-73
2023/12/19 08:54:36;;;;;;;72.95;42.60;;;5.50;99.90;;;;;;4931975;29;20019;-73
2023/12/19 08:57:03;;;;;;;70.30;43.78;;;5.50;99.90;;;;;;4937979;29;20075;-73
2023/12/19 08:59:28;;;;;;;59.85;44.42;;;5.50;99.90;;;;;;4937504;29;20395;-74
2023/12/19 09:01:55;;;;;;;62.88;45.53;;;5.70;99.90;;;;;;4937677;29;20047;-75
2023/12/19 09:04:21;;;;;;;78.20;51.42;;;5.70;99.90;;;;;;4936795;29;20092;-74
2023/12/19 09:06:48;;;;;;;78.72;52.47;;;5.80;99.90;;;;;;4937946;29;20031;-75
2023/12/19 09:09:15;;;;;;;76.05;52.38;;;6.00;99.90;;;;;;4938167;29;20024;-75
2023/12/19 09:11:42;;;;;;;68.28;50.03;;;6.20;99.90;;;;;;4920899;29;20034;-74
2023/12/19 09:14:11;;;;;;;77.05;53.53;;;6.20;99.90;;;;;;4920848;29;20463;-75
2023/12/19 09:16:38;;;;;;;69.38;52.90;;;6.40;99.90;;;;;;4937681;29;20028;-74
2023/12/19 09:19:04;;;;;;;80.78;55.55;;;6.60;99.90;;;;;;4937549;29;20027;-74
2023/12/19 09:21:31;;;;;;;79.30;56.30;;;6.80;99.90;;;;;;4920468;29;20035;-73
2023/12/19 09:23:57;;;;;;;75.43;54.50;;;7.20;99.90;;;;;;4937414;29;20215;-74
2023/12/19 09:26:23;;;;;;;77.28;55.00;;;7.20;99.90;;;;;;4937732;29;20031;-74
2023/12/19 09:28:49;;;;;;;68.20;50.22;;;7.30;99.90;;;;;;4937266;29;20020;-75
2023/12/19 09:31:14;;;;;;;81.15;58.22;;;7.40;99.90;;;;;;4937299;29;20062;-74
2023/12/19 09:33:40;;;;;;;83.30;57.13;;;7.50;99.90;;;;;;4937330;29;20020;-74
2023/12/19 09:36:08;;;;;;;72.07;48.50;;;7.70;99.90;;;;;;4937518;29;20083;-74
2023/12/19 09:38:37;;;;;;;66.82;50.38;;;7.70;99.90;;;;;;4937356;29;20551;-75
2023/12/19 09:41:04;;;;;;;82.03;56.60;;;7.80;99.90;;;;;;4920067;29;20087;-75
2023/12/19 09:43:33;;;;;;;81.93;63.53;;;8.00;99.90;;;;;;4920326;29;20031;-75
2023/12/19 09:46:03;;;;;;;89.47;63.88;;;8.10;99.90;;;;;;4920343;29;20035;-75
2023/12/19 09:48:35;;;;;;;89.53;64.25;;;8.20;99.90;;;;;;4920114;29;20090;-74
2023/12/19 09:51:03;;;;;;;96.18;65.35;;;8.30;99.90;;;;;;4945363;29;20027;-75
2023/12/19 09:53:33;;;;;;;92.60;65.18;;;8.40;99.90;;;;;;4941304;29;20023;-76
2023/12/19 09:56:00;;;;;;;93.97;65.55;;;8.50;99.90;;;;;;4919894;29;20086;-76
2023/12/19 09:58:31;;;;;;;88.07;65.88;;;8.60;99.90;;;;;;4936826;29;20036;-75
2023/12/19 10:00:59;;;;;;;93.68;63.55;;;8.80;99.90;;;;;;4937062;29;20491;-76
2023/12/19 10:03:27;;;;;;;103.68;64.35;;;8.90;99.90;;;;;;4936485;29;20020;-75
2023/12/19 10:05:53;;;;;;;92.97;65.10;;;9.00;99.90;;;;;;4936421;29;20067;-74
2023/12/19 10:08:21;;;;;;;99.22;64.97;;;9.00;99.90;;;;;;4936562;29;20063;-74
2023/12/19 10:10:52;;;;;;;93.65;66.32;;;9.10;99.90;;;;;;4936932;29;20043;-75
2023/12/19 10:13:33;;;;;;;105.07;76.45;;;9.20;99.90;;;;;;4940983;29;20046;-75
2023/12/19 10:16:04;;;;;;;118.30;86.00;;;9.30;99.90;;;;;;4942883;29;20040;-75
2023/12/19 10:18:30;;;;;;;124.68;95.85;;;9.30;99.90;;;;;;4936690;29;20024;-74
2023/12/19 10:21:24;;;;;;;129.00;95.82;;;9.40;99.90;;;;;;4936485;29;20027;-75
2023/12/19 10:23:50;;;;;;;128.82;96.65;;;9.40;99.90;;;;;;4934712;29;20040;-74
2023/12/19 10:26:21;;;;;;;130.55;94.93;;;9.50;99.90;;;;;;4936546;29;20479;-75
2023/12/19 10:28:56;;;;;;;105.00;82.55;;;9.60;99.90;;;;;;4919363;29;20039;-75
2023/12/19 10:31:24;;;;;;;116.18;87.22;;;9.60;99.90;;;;;;4936444;29;20055;-74
2023/12/19 10:33:56;;;;;;;132.05;98.78;;;9.60;99.90;;;;;;4936444;29;20391;-74
2023/12/19 10:36:28;;;;;;;133.20;101.43;;;9.70;99.90;;;;;;4936286;29;20031;-74
2023/12/19 10:38:55;;;;;;;132.63;100.32;;;9.80;99.90;;;;;;4936143;29;20067;-76
2023/12/19 10:41:32;;;;;;;122.45;93.63;;;9.60;99.60;;;;;;4936106;29;20032;-74
2023/12/19 10:44:04;;;;;;;120.05;88.32;;;9.70;99.90;;;;;;4936105;29;20042;-75
2023/12/19 10:46:32;;;;;;;117.57;89.75;;;9.70;99.90;;;;;;4914940;29;20031;-74
2023/12/19 10:49:00;;;;;;;112.65;86.35;;;9.80;99.90;;;;;;4937044;29;20054;-75
2023/12/19 10:51:39;;;;;;;115.32;85.35;;;9.80;98.60;;;;;;4936362;29;20501;-75
2023/12/19 10:54:05;;;;;;;128.73;91.97;;;9.80;97.50;;;;;;4935997;29;20031;-75
2023/12/19 10:56:37;;;;;;;129.00;90.82;;;9.80;99.90;;;;;;4935998;29;20136;-75
2023/12/19 10:59:07;;;;;;;129.90;95.78;;;10.00;99.90;;;;;;4935970;29;20027;-75
2023/12/19 11:01:39;;;;;;;127.07;98.20;;;9.90;98.20;;;;;;4918550;29;20408;-75
2023/12/19 11:04:18;;;;;;;153.70;109.05;;;10.10;99.60;;;;;;4935784;29;20047;-75
2023/12/19 11:06:48;;;;;;;143.05;104.72;;;10.20;98.40;;;;;;4935600;29;20032;-74
2023/12/19 11:09:21;;;;;;;144.15;104.80;;;10.20;97.80;;;;;;4935525;29;20032;-72
2023/12/19 11:11:46;;;;;;;;;;;10.30;97.90;;;;;;4936295;29;20023;-75
2023/12/19 11:14:13;;;;;;;111.50;84.25;;;10.30;98.30;;;;;;4935681;29;19929;-75
2023/12/19 11:16:53;;;;;;;101.55;71.25;;;10.40;99.90;;;;;;4935009;29;20067;-72
2023/12/19 11:19:27;;;;;;;105.82;73.85;;;10.40;98.80;;;;;;4935152;29;20083;-74
2023/12/19 11:22:16;;;;;;;100.90;73.35;;;10.40;98.90;;;;;;4935533;29;20040;-74
2023/12/19 11:25:01;;;;;;;105.05;74.63;;;10.40;98.90;;;;;;4935564;29;20044;-74
2023/12/19 11:27:42;;;;;;;103.57;76.57;;;10.50;99.40;;;;;;4918608;29;20046;-74
2023/12/19 11:30:32;;;;;;;98.43;75.20;;;10.50;98.40;;;;;;4935178;29;20094;-73
2023/12/19 11:32:58;;;;;;;102.20;78.97;;;10.60;99.50;;;;;;4918037;29;20028;-74
2023/12/19 11:35:29;;;;;;;103.45;75.28;;;10.60;98.40;;;;;;4935407;29;20063;-74
2023/12/19 11:38:13;;;;;;;112.45;81.32;;;10.60;99.90;;;;;;4918274;29;20027;-73
2023/12/19 11:40:45;;;;;;;106.97;80.97;;;10.60;98.70;;;;;;4918406;29;20078;-76
2023/12/19 11:43:29;;;;;;;114.25;80.05;;;10.60;99.90;;;;;;4935351;29;20088;-75
2023/12/19 11:45:56;;;;;;;91.32;64.50;;;10.60;99.90;;;;;;4922940;29;20495;-75
2023/12/19 11:48:39;;;;;;;100.13;72.63;;;10.60;99.90;;;;;;4934852;29;20028;-73
2023/12/19 11:51:09;;;;;;;90.90;60.65;;;10.70;99.90;;;;;;4918309;29;20448;-73
2023/12/19 11:53:35;;;;;;;66.78;48.53;;;10.70;99.90;;;;;;4934977;29;20087;-74
2023/12/19 11:56:05;;;;;;;69.25;43.30;;;10.70;99.90;;;;;;4935028;29;20467;-75
2023/12/19 11:58:32;;;;;;;62.17;40.22;;;10.70;99.90;;;;;;4917809;29;20035;-75
2023/12/19 12:00:59;;;;;;;59.60;40.83;;;10.80;99.90;;;;;;4935370;29;20032;-75
2023/12/19 12:03:25;;;;;;;49.40;36.85;;;10.70;99.90;;;;;;4930555;29;20108;-74
2023/12/19 12:05:52;;;;;;;47.33;34.47;;;10.80;99.90;;;;;;4934968;29;20519;-75
2023/12/19 12:08:19;;;;;;;53.08;36.80;;;10.90;99.90;;;;;;4917793;29;20032;-73
2023/12/19 12:11:01;;;;;;;47.58;33.92;;;10.90;99.90;;;;;;4934702;29;20055;-73
2023/12/19 12:13:28;;;;;;;40.53;29.77;;;11.00;99.90;;;;;;4934850;29;20043;-73
2023/12/19 12:15:56;;;;;;;35.53;26.70;;;11.10;99.90;;;;;;4934702;29;20024;-73
2023/12/19 12:18:23;;;;;;;42.80;30.48;;;11.10;99.90;;;;;;4934762;29;20364;-73
2023/12/19 12:20:48;;;;;;;40.10;26.88;;;11.20;99.90;;;;;;4934761;29;20111;-73
2023/12/19 12:23:19;;;;;;;45.70;34.22;;;11.20;99.90;;;;;;4934332;29;20179;-75
2023/12/19 12:25:55;;;;;;;49.22;37.20;;;11.20;99.90;;;;;;4934672;29;20043;-76
2023/12/19 12:28:25;;;;;;;50.25;37.25;;;11.30;99.90;;;;;;4935211;29;20107;-74
2023/12/19 12:30:55;;;;;;;54.38;37.45;;;11.30;99.90;;;;;;4951232;28;20055;-75
2023/12/19 12:33:25;;;;;;;50.85;36.13;;;11.20;99.90;;;;;;4930486;29;20027;-76
2023/12/19 12:35:52;;;;;;;46.22;34.92;;;11.20;99.90;;;;;;4923913;29;20110;-76